ITY29P CYYT-CYUL
Flight info
| Callsign | ITY29P |
|---|---|
| Flight time | 2h 3m |
| Altitude | 37000 |
| Route | TEXED DCT TAGRA DCT MIILS DCT KEBIG ROCKT3 |
| Aircraft | A359/H-SDE2E3GHIJ1J3J4J5LM1ORWXY/LB1D1 |
Departure
| Time | 2026-04-30 18:37 |
|---|---|
| Airport | St. John's International Airport (CYYT) |
Arrival
| Time | 2026-04-30 20:41 |
|---|---|
| Airport | Montreal / Pierre Elliott Trudeau International Airport (CYUL) |
| Time | Latitude | Longitude | Altitude | Speed | Heading |
|---|---|---|---|---|---|
| 2026-04-30 18:19 | 47.61395 | -52.74560 | 455 ft | 0 kts | 157° |
| 2026-04-30 18:23 | 47.61396 | -52.74560 | 455 ft | 0 kts | 157° |
| 2026-04-30 18:24 | 47.61400 | -52.74563 | 454 ft | 4 kts | 156° |
| 2026-04-30 18:25 | 47.61419 | -52.74578 | 454 ft | 2 kts | 142° |
| 2026-04-30 18:25 | 47.61431 | -52.74606 | 454 ft | 2 kts | 76° |
| 2026-04-30 18:25 | 47.61427 | -52.74621 | 450 ft | 2 kts | 59° |
| 2026-04-30 18:26 | 47.61417 | -52.74644 | 452 ft | 0 kts | 52° |
| 2026-04-30 18:26 | 47.61425 | -52.74627 | 451 ft | 5 kts | 53° |
| 2026-04-30 18:27 | 47.61490 | -52.74436 | 455 ft | 14 kts | 73° |
| 2026-04-30 18:27 | 47.61540 | -52.74318 | 454 ft | 15 kts | 49° |
| 2026-04-30 18:28 | 47.61764 | -52.74450 | 457 ft | 23 kts | 319° |
| 2026-04-30 18:28 | 47.61870 | -52.74603 | 463 ft | 20 kts | 295° |
| 2026-04-30 18:28 | 47.61902 | -52.74973 | 465 ft | 21 kts | 285° |
| 2026-04-30 18:29 | 47.61853 | -52.75138 | 472 ft | 16 kts | 233° |
| 2026-04-30 18:29 | 47.61774 | -52.75577 | 486 ft | 13 kts | 305° |
| 2026-04-30 18:30 | 47.61926 | -52.75871 | 500 ft | 22 kts | 308° |
| 2026-04-30 18:30 | 47.62051 | -52.76173 | 467 ft | 0 kts | 258° |
| 2026-04-30 18:31 | 47.62054 | -52.76151 | 467 ft | 2 kts | 261° |
| 2026-04-30 18:32 | 47.62055 | -52.76131 | 467 ft | 0 kts | 297° |
| 2026-04-30 18:32 | 47.62055 | -52.76132 | 467 ft | 0 kts | 294° |
| 2026-04-30 18:33 | 47.62067 | -52.76155 | 468 ft | 0 kts | 298° |
| 2026-04-30 18:33 | 47.62076 | -52.76180 | 467 ft | 12 kts | 299° |
| 2026-04-30 18:34 | 47.62182 | -52.76372 | 467 ft | 30 kts | 310° |
| 2026-04-30 18:34 | 47.62280 | -52.76764 | 469 ft | 19 kts | 272° |
| 2026-04-30 18:34 | 47.62271 | -52.76968 | 467 ft | 20 kts | 268° |
| 2026-04-30 18:35 | 47.62333 | -52.77083 | 468 ft | 15 kts | 13° |
| 2026-04-30 18:35 | 47.62375 | -52.76945 | 465 ft | 14 kts | 86° |
| 2026-04-30 18:35 | 47.62376 | -52.76926 | 465 ft | 0 kts | 85° |
| 2026-04-30 18:36 | 47.62376 | -52.76927 | 465 ft | 0 kts | 85° |
| 2026-04-30 18:36 | 47.62376 | -52.76926 | 465 ft | 0 kts | 85° |
| 2026-04-30 18:36 | 47.62396 | -52.76505 | 475 ft | 88 kts | 86° |
| 2026-04-30 18:37 | 47.62462 | -52.75166 | 575 ft | 160 kts | 86° |
| 2026-04-30 18:37 | 47.62573 | -52.73523 | 1642 ft | 161 kts | 89° |
| 2026-04-30 18:37 | 47.62632 | -52.71719 | 2456 ft | 191 kts | 92° |
| 2026-04-30 18:37 | 47.62384 | -52.69664 | 3018 ft | 216 kts | 115° |
| 2026-04-30 18:38 | 47.61354 | -52.67990 | 3512 ft | 231 kts | 153° |
| 2026-04-30 18:38 | 47.59745 | -52.67678 | 4244 ft | 244 kts | 189° |
| 2026-04-30 18:38 | 47.58251 | -52.68941 | 5039 ft | 259 kts | 225° |
| 2026-04-30 18:38 | 47.57476 | -52.71369 | 5888 ft | 269 kts | 258° |
| 2026-04-30 18:39 | 47.57446 | -52.74137 | 6758 ft | 277 kts | 273° |
| 2026-04-30 18:39 | 47.57714 | -52.76983 | 7655 ft | 281 kts | 277° |
| 2026-04-30 18:39 | 47.58010 | -52.79861 | 8581 ft | 284 kts | 276° |
| 2026-04-30 18:39 | 47.58220 | -52.82787 | 9513 ft | 288 kts | 272° |
| 2026-04-30 18:40 | 47.58318 | -52.85765 | 10392 ft | 294 kts | 269° |
| 2026-04-30 18:40 | 47.58325 | -52.88905 | 10793 ft | 316 kts | 268° |
| 2026-04-30 18:40 | 47.58264 | -52.92276 | 11133 ft | 339 kts | 266° |
| 2026-04-30 18:40 | 47.58163 | -52.95870 | 11513 ft | 358 kts | 266° |
| 2026-04-30 18:41 | 47.58051 | -52.99541 | 12229 ft | 365 kts | 266° |
| 2026-04-30 18:41 | 47.57939 | -53.03323 | 13051 ft | 369 kts | 266° |
| 2026-04-30 18:41 | 47.57833 | -53.07151 | 13850 ft | 375 kts | 266° |
| 2026-04-30 18:41 | 47.57730 | -53.11030 | 14577 ft | 380 kts | 266° |
| 2026-04-30 18:42 | 47.57627 | -53.14960 | 15283 ft | 384 kts | 266° |
| 2026-04-30 18:42 | 47.57420 | -53.22918 | 16762 ft | 390 kts | 267° |
| 2026-04-30 18:42 | 47.57313 | -53.26946 | 17504 ft | 394 kts | 267° |
| 2026-04-30 18:45 | 47.56086 | -53.69463 | 23983 ft | 436 kts | 266° |
| 2026-04-30 18:45 | 47.55948 | -53.73960 | 24529 ft | 439 kts | 266° |
| 2026-04-30 18:45 | 47.55806 | -53.78484 | 25106 ft | 442 kts | 266° |
| 2026-04-30 18:46 | 47.55662 | -53.83042 | 25668 ft | 445 kts | 266° |
| 2026-04-30 18:46 | 47.55517 | -53.87571 | 26219 ft | 448 kts | 266° |
| 2026-04-30 18:46 | 47.55366 | -53.92187 | 26770 ft | 451 kts | 266° |
| 2026-04-30 18:46 | 47.55213 | -53.96834 | 27316 ft | 454 kts | 266° |
| 2026-04-30 18:47 | 47.55057 | -54.01517 | 27856 ft | 457 kts | 266° |
| 2026-04-30 18:47 | 47.54898 | -54.06227 | 28387 ft | 460 kts | 266° |
| 2026-04-30 18:47 | 47.54736 | -54.10973 | 28897 ft | 463 kts | 266° |
| 2026-04-30 18:47 | 47.54460 | -54.15734 | 29415 ft | 465 kts | 261° |
| 2026-04-30 18:48 | 47.53997 | -54.20482 | 29903 ft | 468 kts | 260° |
| 2026-04-30 18:48 | 47.53494 | -54.25194 | 30352 ft | 471 kts | 259° |
| 2026-04-30 18:48 | 47.52956 | -54.29989 | 30747 ft | 474 kts | 259° |
| 2026-04-30 18:48 | 47.52403 | -54.34804 | 31120 ft | 476 kts | 259° |
| 2026-04-30 18:49 | 47.51842 | -54.39647 | 31521 ft | 478 kts | 259° |
| 2026-04-30 18:49 | 47.51279 | -54.44505 | 31911 ft | 480 kts | 259° |
| 2026-04-30 18:49 | 47.50714 | -54.49379 | 32258 ft | 482 kts | 259° |
| 2026-04-30 18:49 | 47.50146 | -54.54280 | 32595 ft | 484 kts | 259° |
| 2026-04-30 18:50 | 47.49575 | -54.59200 | 32951 ft | 486 kts | 259° |
| 2026-04-30 18:50 | 47.49005 | -54.64107 | 33485 ft | 483 kts | 259° |
| 2026-04-30 18:50 | 47.48436 | -54.68979 | 34020 ft | 480 kts | 259° |
| 2026-04-30 18:50 | 47.47868 | -54.73832 | 34461 ft | 478 kts | 259° |
| 2026-04-30 18:51 | 47.47299 | -54.78667 | 34859 ft | 477 kts | 259° |
| 2026-04-30 18:51 | 47.46737 | -54.83435 | 35190 ft | 477 kts | 259° |
| 2026-04-30 18:51 | 47.46164 | -54.88263 | 35478 ft | 477 kts | 259° |
| 2026-04-30 18:51 | 47.45591 | -54.93084 | 35841 ft | 476 kts | 259° |
| 2026-04-30 18:52 | 47.45016 | -54.97899 | 36139 ft | 476 kts | 260° |
| 2026-04-30 18:52 | 47.44438 | -55.02718 | 36441 ft | 475 kts | 259° |
| 2026-04-30 18:52 | 47.43862 | -55.07504 | 36900 ft | 472 kts | 259° |
| 2026-04-30 18:52 | 47.43286 | -55.12272 | 37126 ft | 473 kts | 259° |
| 2026-04-30 18:53 | 47.42704 | -55.17073 | 37252 ft | 476 kts | 259° |
| 2026-04-30 18:53 | 47.41543 | -55.26599 | 37275 ft | 474 kts | 259° |
| 2026-04-30 18:54 | 47.40370 | -55.36171 | 37257 ft | 473 kts | 258° |
| 2026-04-30 18:54 | 47.39186 | -55.45734 | 37250 ft | 474 kts | 258° |
| 2026-04-30 18:55 | 47.38004 | -55.55228 | 37249 ft | 474 kts | 258° |
| 2026-04-30 18:55 | 47.36203 | -55.69564 | 37229 ft | 474 kts | 258° |
| 2026-04-30 18:56 | 47.34378 | -55.83927 | 37227 ft | 475 kts | 258° |
| 2026-04-30 18:57 | 47.32536 | -55.98288 | 37225 ft | 475 kts | 258° |
| 2026-04-30 18:57 | 47.31306 | -56.07793 | 37235 ft | 475 kts | 258° |
| 2026-04-30 18:58 | 47.29434 | -56.22134 | 37242 ft | 475 kts | 257° |
| 2026-04-30 18:59 | 47.27548 | -56.36440 | 37246 ft | 474 kts | 257° |
| 2026-04-30 19:00 | 47.25015 | -56.55421 | 37254 ft | 474 kts | 256° |
| 2026-04-30 19:01 | 47.22442 | -56.74448 | 37268 ft | 474 kts | 256° |
| 2026-04-30 19:02 | 47.20501 | -56.88637 | 37268 ft | 474 kts | 256° |
| 2026-04-30 19:03 | 47.18046 | -57.07688 | 37276 ft | 477 kts | 262° |
| 2026-04-30 19:04 | 47.18029 | -57.27253 | 37271 ft | 479 kts | 268° |
| 2026-04-30 19:05 | 47.18276 | -57.46799 | 37270 ft | 480 kts | 267° |
| 2026-04-30 19:06 | 47.18449 | -57.66430 | 37263 ft | 480 kts | 267° |
| 2026-04-30 19:06 | 47.18554 | -57.81085 | 37259 ft | 480 kts | 267° |
| 2026-04-30 19:07 | 47.18641 | -57.95814 | 37262 ft | 481 kts | 267° |
| 2026-04-30 19:08 | 47.18728 | -58.15400 | 37252 ft | 481 kts | 266° |
| 2026-04-30 19:09 | 47.18771 | -58.30146 | 37250 ft | 481 kts | 266° |
| 2026-04-30 19:09 | 47.18789 | -58.39985 | 37253 ft | 482 kts | 266° |
| 2026-04-30 19:10 | 47.18801 | -58.59619 | 37247 ft | 482 kts | 266° |
| 2026-04-30 19:11 | 47.18788 | -58.74392 | 37244 ft | 482 kts | 266° |
| 2026-04-30 19:12 | 47.18768 | -58.84237 | 37237 ft | 482 kts | 266° |
| 2026-04-30 19:12 | 47.18740 | -58.94089 | 37239 ft | 482 kts | 266° |
| 2026-04-30 19:13 | 47.18660 | -59.13705 | 37230 ft | 481 kts | 266° |
| 2026-04-30 19:14 | 47.18607 | -59.23547 | 37228 ft | 481 kts | 266° |
| 2026-04-30 19:14 | 47.18545 | -59.33386 | 37227 ft | 481 kts | 266° |
| 2026-04-30 19:15 | 47.18475 | -59.43158 | 37218 ft | 481 kts | 266° |
| 2026-04-30 19:15 | 47.18354 | -59.57920 | 37359 ft | 482 kts | 266° |
| 2026-04-30 19:16 | 47.18310 | -59.62841 | 37658 ft | 481 kts | 266° |
| 2026-04-30 19:16 | 47.18264 | -59.67746 | 38003 ft | 479 kts | 266° |
| 2026-04-30 19:16 | 47.18165 | -59.77484 | 38223 ft | 479 kts | 266° |
| 2026-04-30 19:17 | 47.18113 | -59.82374 | 38215 ft | 478 kts | 266° |
| 2026-04-30 19:17 | 47.17942 | -59.97046 | 38207 ft | 479 kts | 266° |
| 2026-04-30 19:18 | 47.17754 | -60.11712 | 38205 ft | 479 kts | 266° |
| 2026-04-30 19:19 | 47.17618 | -60.21426 | 38203 ft | 478 kts | 266° |
| 2026-04-30 19:19 | 47.17399 | -60.36080 | 38199 ft | 478 kts | 266° |
| 2026-04-30 19:20 | 47.17242 | -60.45840 | 38197 ft | 478 kts | 266° |
| 2026-04-30 19:21 | 47.16992 | -60.60415 | 38184 ft | 478 kts | 266° |
| 2026-04-30 19:22 | 47.16629 | -60.79920 | 38162 ft | 477 kts | 266° |
| 2026-04-30 19:23 | 47.16026 | -61.09055 | 38152 ft | 476 kts | 265° |
| 2026-04-30 19:24 | 47.15695 | -61.23653 | 38162 ft | 476 kts | 265° |
| 2026-04-30 19:25 | 47.15106 | -61.47863 | 38141 ft | 475 kts | 266° |
| 2026-04-30 19:26 | 47.14598 | -61.67254 | 38132 ft | 475 kts | 265° |
| 2026-04-30 19:27 | 47.14195 | -61.81794 | 38142 ft | 475 kts | 265° |
| 2026-04-30 19:28 | 47.13776 | -61.96257 | 38127 ft | 475 kts | 265° |
| 2026-04-30 19:29 | 47.13187 | -62.15606 | 38123 ft | 473 kts | 265° |
| 2026-04-30 19:30 | 47.12569 | -62.34827 | 38120 ft | 472 kts | 265° |
| 2026-04-30 19:31 | 47.11918 | -62.54088 | 38108 ft | 472 kts | 265° |
| 2026-04-30 19:31 | 47.11408 | -62.68530 | 38113 ft | 472 kts | 265° |
| 2026-04-30 19:32 | 47.11061 | -62.78096 | 38107 ft | 472 kts | 265° |
| 2026-04-30 19:32 | 47.10703 | -62.87720 | 38096 ft | 472 kts | 265° |
| 2026-04-30 19:33 | 47.10338 | -62.97323 | 38097 ft | 470 kts | 265° |
| 2026-04-30 19:33 | 47.09966 | -63.06899 | 38097 ft | 470 kts | 265° |
| 2026-04-30 19:34 | 47.09589 | -63.16404 | 38100 ft | 470 kts | 264° |
| 2026-04-30 19:35 | 47.09004 | -63.30757 | 38086 ft | 470 kts | 264° |
| 2026-04-30 19:35 | 47.08604 | -63.40323 | 38086 ft | 469 kts | 264° |
| 2026-04-30 19:36 | 47.08196 | -63.49884 | 38073 ft | 469 kts | 264° |
| 2026-04-30 19:36 | 47.07573 | -63.64156 | 38078 ft | 469 kts | 264° |
| 2026-04-30 19:37 | 47.07146 | -63.73703 | 38076 ft | 469 kts | 264° |
| 2026-04-30 19:37 | 47.06711 | -63.83244 | 38067 ft | 469 kts | 264° |
| 2026-04-30 19:38 | 47.06269 | -63.92784 | 38066 ft | 469 kts | 264° |
| 2026-04-30 19:38 | 47.05821 | -64.02265 | 38058 ft | 469 kts | 264° |
| 2026-04-30 19:39 | 47.05363 | -64.11797 | 38050 ft | 469 kts | 264° |
| 2026-04-30 19:39 | 47.04896 | -64.21334 | 38046 ft | 469 kts | 263° |
| 2026-04-30 19:40 | 47.04422 | -64.30872 | 38046 ft | 469 kts | 263° |
| 2026-04-30 19:40 | 47.03943 | -64.40338 | 38046 ft | 469 kts | 263° |
| 2026-04-30 19:41 | 47.03451 | -64.49888 | 38038 ft | 471 kts | 263° |
| 2026-04-30 19:41 | 47.02951 | -64.59467 | 38037 ft | 472 kts | 263° |
| 2026-04-30 19:42 | 47.02441 | -64.69079 | 38030 ft | 473 kts | 263° |
| 2026-04-30 19:42 | 47.01926 | -64.78627 | 38027 ft | 473 kts | 263° |
| 2026-04-30 19:43 | 47.01399 | -64.88243 | 38022 ft | 473 kts | 263° |
| 2026-04-30 19:44 | 47.00594 | -65.02652 | 38023 ft | 473 kts | 263° |
| 2026-04-30 19:44 | 47.00048 | -65.12256 | 38017 ft | 472 kts | 263° |
| 2026-04-30 19:45 | 46.99500 | -65.21759 | 38016 ft | 471 kts | 263° |
| 2026-04-30 19:45 | 46.98942 | -65.31291 | 38013 ft | 468 kts | 263° |
| 2026-04-30 19:46 | 46.98378 | -65.40782 | 38000 ft | 468 kts | 263° |
| 2026-04-30 19:46 | 46.97805 | -65.50272 | 37998 ft | 468 kts | 263° |
| 2026-04-30 19:47 | 46.97230 | -65.59686 | 37986 ft | 467 kts | 262° |
| 2026-04-30 19:47 | 46.96643 | -65.69162 | 37982 ft | 467 kts | 262° |
| 2026-04-30 19:48 | 46.96049 | -65.78626 | 37969 ft | 467 kts | 262° |
| 2026-04-30 19:48 | 46.95446 | -65.88092 | 37971 ft | 467 kts | 262° |
| 2026-04-30 19:49 | 46.94841 | -65.97485 | 37964 ft | 467 kts | 262° |
| 2026-04-30 19:49 | 46.93913 | -66.11661 | 37954 ft | 466 kts | 261° |
| 2026-04-30 19:50 | 46.93285 | -66.21100 | 37954 ft | 466 kts | 261° |
| 2026-04-30 19:50 | 46.92648 | -66.30545 | 37948 ft | 466 kts | 261° |
| 2026-04-30 19:51 | 46.92009 | -66.39915 | 37945 ft | 466 kts | 261° |
| 2026-04-30 19:51 | 46.91357 | -66.49353 | 37957 ft | 466 kts | 261° |
| 2026-04-30 19:52 | 46.90697 | -66.58796 | 37937 ft | 467 kts | 261° |
| 2026-04-30 19:52 | 46.90028 | -66.68249 | 37923 ft | 467 kts | 261° |
| 2026-04-30 19:53 | 46.89352 | -66.77697 | 37927 ft | 467 kts | 261° |
| 2026-04-30 19:53 | 46.88669 | -66.87140 | 37915 ft | 467 kts | 261° |
| 2026-04-30 19:54 | 46.87981 | -66.96530 | 37918 ft | 468 kts | 260° |
| 2026-04-30 19:54 | 46.87023 | -67.05912 | 37908 ft | 465 kts | 252° |
| 2026-04-30 19:55 | 46.85251 | -67.14976 | 37896 ft | 464 kts | 250° |
| 2026-04-30 19:55 | 46.83330 | -67.23976 | 37897 ft | 464 kts | 249° |
| 2026-04-30 19:56 | 46.81397 | -67.32896 | 37882 ft | 464 kts | 249° |
| 2026-04-30 19:56 | 46.79457 | -67.41872 | 37882 ft | 464 kts | 249° |
| 2026-04-30 19:57 | 46.77516 | -67.50856 | 37883 ft | 464 kts | 249° |
| 2026-04-30 19:57 | 46.75570 | -67.59835 | 37874 ft | 465 kts | 249° |
| 2026-04-30 19:58 | 46.73628 | -67.68758 | 37880 ft | 465 kts | 249° |
| 2026-04-30 19:58 | 46.71665 | -67.77730 | 37886 ft | 465 kts | 249° |
| 2026-04-30 19:59 | 46.69697 | -67.86696 | 37893 ft | 465 kts | 249° |
| 2026-04-30 20:00 | 46.66730 | -68.00133 | 37895 ft | 465 kts | 249° |
| 2026-04-30 20:00 | 46.64756 | -68.09028 | 37897 ft | 465 kts | 249° |
| 2026-04-30 20:01 | 46.61759 | -68.22456 | 37902 ft | 465 kts | 248° |
| 2026-04-30 20:01 | 46.59751 | -68.31406 | 37898 ft | 465 kts | 248° |
| 2026-04-30 20:02 | 46.56727 | -68.44820 | 37900 ft | 465 kts | 248° |
| 2026-04-30 20:03 | 46.53705 | -68.58140 | 37876 ft | 465 kts | 248° |
| 2026-04-30 20:03 | 46.51668 | -68.67067 | 37866 ft | 466 kts | 248° |
| 2026-04-30 20:04 | 46.49624 | -68.75988 | 37853 ft | 466 kts | 248° |
| 2026-04-30 20:05 | 46.46558 | -68.89306 | 37836 ft | 466 kts | 248° |
| 2026-04-30 20:05 | 46.43467 | -69.02653 | 37849 ft | 465 kts | 248° |
| 2026-04-30 20:06 | 46.41746 | -69.10044 | 37831 ft | 466 kts | 248° |
| 2026-04-30 20:06 | 46.39671 | -69.18921 | 37827 ft | 465 kts | 248° |
| 2026-04-30 20:07 | 46.37588 | -69.27799 | 37851 ft | 465 kts | 247° |
| 2026-04-30 20:08 | 46.34452 | -69.41101 | 37826 ft | 465 kts | 247° |
| 2026-04-30 20:08 | 46.32354 | -69.49953 | 37827 ft | 466 kts | 247° |
| 2026-04-30 20:09 | 46.30260 | -69.58752 | 37845 ft | 466 kts | 247° |
| 2026-04-30 20:09 | 46.26731 | -69.73503 | 37835 ft | 468 kts | 247° |
| 2026-04-30 20:10 | 46.23877 | -69.85367 | 37825 ft | 467 kts | 247° |
| 2026-04-30 20:11 | 46.20676 | -69.98592 | 37826 ft | 467 kts | 247° |
| 2026-04-30 20:11 | 46.18524 | -70.07441 | 37829 ft | 467 kts | 247° |
| 2026-04-30 20:12 | 46.15284 | -70.20698 | 37824 ft | 468 kts | 247° |
| 2026-04-30 20:13 | 46.13113 | -70.29539 | 37816 ft | 468 kts | 247° |
| 2026-04-30 20:13 | 46.10949 | -70.38313 | 37817 ft | 468 kts | 247° |
| 2026-04-30 20:14 | 46.08765 | -70.47135 | 37812 ft | 467 kts | 247° |
| 2026-04-30 20:14 | 46.06580 | -70.55932 | 37813 ft | 466 kts | 247° |
| 2026-04-30 20:15 | 46.04388 | -70.64718 | 37811 ft | 466 kts | 247° |
| 2026-04-30 20:15 | 46.02188 | -70.73500 | 37807 ft | 467 kts | 247° |
| 2026-04-30 20:16 | 45.99996 | -70.82224 | 37799 ft | 467 kts | 246° |
| 2026-04-30 20:16 | 45.99138 | -70.86742 | 37802 ft | 471 kts | 257° |
| 2026-04-30 20:16 | 45.98651 | -70.91405 | 37802 ft | 472 kts | 258° |
| 2026-04-30 20:16 | 45.98229 | -70.96083 | 37662 ft | 471 kts | 259° |
| 2026-04-30 20:17 | 45.97814 | -71.00759 | 37406 ft | 472 kts | 258° |
| 2026-04-30 20:17 | 45.97399 | -71.05442 | 37135 ft | 473 kts | 259° |
| 2026-04-30 20:17 | 45.96992 | -71.10135 | 36875 ft | 473 kts | 259° |
| 2026-04-30 20:17 | 45.96591 | -71.14770 | 36624 ft | 474 kts | 259° |
| 2026-04-30 20:18 | 45.96181 | -71.19473 | 36363 ft | 474 kts | 259° |
| 2026-04-30 20:18 | 45.95771 | -71.24157 | 35824 ft | 471 kts | 259° |
| 2026-04-30 20:18 | 45.95361 | -71.28817 | 35119 ft | 470 kts | 258° |
| 2026-04-30 20:18 | 45.94946 | -71.33486 | 34347 ft | 472 kts | 258° |
| 2026-04-30 20:19 | 45.94527 | -71.38169 | 33463 ft | 474 kts | 258° |
| 2026-04-30 20:19 | 45.94106 | -71.42857 | 32566 ft | 475 kts | 258° |
| 2026-04-30 20:19 | 45.93682 | -71.47571 | 31676 ft | 476 kts | 257° |
| 2026-04-30 20:19 | 45.93255 | -71.52295 | 30780 ft | 478 kts | 257° |
| 2026-04-30 20:20 | 45.92830 | -71.56978 | 29863 ft | 481 kts | 256° |
| 2026-04-30 20:20 | 45.92392 | -71.61757 | 28767 ft | 484 kts | 257° |
| 2026-04-30 20:20 | 45.91952 | -71.66544 | 28022 ft | 481 kts | 257° |
| 2026-04-30 20:20 | 45.91518 | -71.71282 | 27352 ft | 476 kts | 257° |
| 2026-04-30 20:21 | 45.91084 | -71.75980 | 26685 ft | 472 kts | 257° |
| 2026-04-30 20:21 | 45.90650 | -71.80641 | 25983 ft | 469 kts | 257° |
| 2026-04-30 20:21 | 45.90218 | -71.85266 | 25298 ft | 466 kts | 257° |
| 2026-04-30 20:21 | 45.89786 | -71.89861 | 24611 ft | 463 kts | 257° |
| 2026-04-30 20:22 | 45.89363 | -71.94354 | 23952 ft | 459 kts | 257° |
| 2026-04-30 20:22 | 45.88935 | -71.98872 | 23284 ft | 455 kts | 256° |
| 2026-04-30 20:22 | 45.88508 | -72.03358 | 22517 ft | 451 kts | 256° |
| 2026-04-30 20:22 | 45.88086 | -72.07794 | 21831 ft | 445 kts | 256° |
| 2026-04-30 20:23 | 45.87668 | -72.12165 | 21168 ft | 439 kts | 256° |
| 2026-04-30 20:23 | 45.87254 | -72.16477 | 20507 ft | 434 kts | 256° |
| 2026-04-30 20:23 | 45.86840 | -72.20750 | 19848 ft | 430 kts | 256° |
| 2026-04-30 20:23 | 45.86431 | -72.24968 | 19291 ft | 424 kts | 256° |
| 2026-04-30 20:24 | 45.86031 | -72.29073 | 18679 ft | 419 kts | 256° |
| 2026-04-30 20:24 | 45.85628 | -72.33189 | 18007 ft | 415 kts | 256° |
| 2026-04-30 20:24 | 45.85226 | -72.37270 | 17279 ft | 411 kts | 256° |
| 2026-04-30 20:24 | 45.84828 | -72.41301 | 16607 ft | 406 kts | 256° |
| 2026-04-30 20:25 | 45.84041 | -72.49221 | 15276 ft | 396 kts | 257° |
| 2026-04-30 20:25 | 45.83654 | -72.53108 | 14612 ft | 392 kts | 257° |
| 2026-04-30 20:26 | 45.82890 | -72.60721 | 13248 ft | 384 kts | 258° |
| 2026-04-30 20:26 | 45.82135 | -72.68197 | 11906 ft | 373 kts | 259° |
| 2026-04-30 20:26 | 45.81770 | -72.71807 | 11651 ft | 354 kts | 259° |
| 2026-04-30 20:27 | 45.80896 | -72.78028 | 11456 ft | 287 kts | 245° |
| 2026-04-30 20:27 | 45.79173 | -72.82865 | 11243 ft | 260 kts | 239° |
| 2026-04-30 20:28 | 45.77475 | -72.87326 | 11021 ft | 256 kts | 239° |
| 2026-04-30 20:28 | 45.75774 | -72.91809 | 10690 ft | 256 kts | 239° |
| 2026-04-30 20:29 | 45.74086 | -72.96263 | 10094 ft | 253 kts | 239° |
| 2026-04-30 20:30 | 45.71775 | -73.03364 | 9375 ft | 271 kts | 256° |
| 2026-04-30 20:30 | 45.70928 | -73.11330 | 8131 ft | 268 kts | 259° |
| 2026-04-30 20:31 | 45.69638 | -73.19014 | 7173 ft | 263 kts | 254° |
| 2026-04-30 20:32 | 45.68269 | -73.26532 | 6220 ft | 258 kts | 255° |
| 2026-04-30 20:32 | 45.67367 | -73.31468 | 5569 ft | 255 kts | 256° |
| 2026-04-30 20:33 | 45.66919 | -73.33919 | 5263 ft | 254 kts | 256° |
| 2026-04-30 20:33 | 45.66040 | -73.38727 | 4642 ft | 249 kts | 256° |
| 2026-04-30 20:33 | 45.65603 | -73.41108 | 4325 ft | 247 kts | 256° |
| 2026-04-30 20:34 | 45.64735 | -73.45840 | 3706 ft | 244 kts | 256° |
| 2026-04-30 20:34 | 45.63897 | -73.50376 | 3390 ft | 223 kts | 256° |
| 2026-04-30 20:35 | 45.63497 | -73.52456 | 3259 ft | 212 kts | 254° |
| 2026-04-30 20:35 | 45.62826 | -73.54285 | 3134 ft | 204 kts | 236° |
| 2026-04-30 20:35 | 45.61016 | -73.56899 | 2996 ft | 168 kts | 227° |
| 2026-04-30 20:36 | 45.60163 | -73.58014 | 2977 ft | 166 kts | 227° |
| 2026-04-30 20:36 | 45.59319 | -73.59128 | 2969 ft | 165 kts | 226° |
| 2026-04-30 20:36 | 45.57652 | -73.61346 | 2741 ft | 157 kts | 228° |
| 2026-04-30 20:37 | 45.56870 | -73.62375 | 2517 ft | 150 kts | 227° |
| 2026-04-30 20:37 | 45.56113 | -73.63368 | 2301 ft | 147 kts | 227° |
| 2026-04-30 20:37 | 45.55375 | -73.64340 | 2121 ft | 144 kts | 227° |
| 2026-04-30 20:37 | 45.54659 | -73.65279 | 1905 ft | 135 kts | 227° |
| 2026-04-30 20:38 | 45.53986 | -73.66164 | 1729 ft | 130 kts | 227° |
| 2026-04-30 20:38 | 45.53327 | -73.67030 | 1538 ft | 129 kts | 229° |
| 2026-04-30 20:38 | 45.52667 | -73.67897 | 1373 ft | 128 kts | 229° |
| 2026-04-30 20:39 | 45.51362 | -73.69622 | 986 ft | 128 kts | 227° |
| 2026-04-30 20:39 | 45.50701 | -73.70481 | 806 ft | 129 kts | 226° |
| 2026-04-30 20:39 | 45.50008 | -73.71295 | 608 ft | 128 kts | 232° |
| 2026-04-30 20:40 | 45.48736 | -73.73023 | 255 ft | 128 kts | 227° |
| 2026-04-30 20:40 | 45.48089 | -73.73892 | 137 ft | 128 kts | 227° |
| 2026-04-30 20:40 | 45.47453 | -73.74739 | 114 ft | 114 kts | 223° |
| 2026-04-30 20:41 | 45.47047 | -73.75272 | 113 ft | 3 kts | 222° |
| 2026-04-30 20:41 | 45.47018 | -73.75310 | 112 ft | 8 kts | 222° |
| 2026-04-30 20:41 | 45.46963 | -73.75382 | 111 ft | 13 kts | 222° |
| 2026-04-30 20:41 | 45.46883 | -73.75482 | 112 ft | 18 kts | 217° |
| 2026-04-30 20:42 | 45.46764 | -73.75575 | 113 ft | 21 kts | 200° |
| 2026-04-30 20:42 | 45.46606 | -73.75634 | 109 ft | 26 kts | 193° |
| 2026-04-30 20:42 | 45.46245 | -73.75725 | 108 ft | 26 kts | 180° |
| 2026-04-30 20:43 | 45.46140 | -73.75789 | 106 ft | 14 kts | 245° |
| 2026-04-30 20:43 | 45.46112 | -73.75928 | 107 ft | 14 kts | 228° |
| 2026-04-30 20:43 | 45.46018 | -73.75959 | 109 ft | 15 kts | 181° |
| 2026-04-30 20:44 | 45.45916 | -73.75955 | 110 ft | 0 kts | 174° |
| 2026-04-30 20:44 | 45.45912 | -73.75950 | 110 ft | 2 kts | 148° |
| 2026-04-30 20:44 | 45.45900 | -73.75858 | 109 ft | 0 kts | 107° |